Time;durP1;ratioP1;P1;durP2;ratioP2;P2;SDS_P1;SDS_P2;PMS_P1;PMS_P2;Temp;Humidity;BMP_temperature;BMP_pressure;BME280_temperature;BME280_humidity;BME280_pressure;Samples;Min_cycle;Max_cycle;Signal;HPM_P1;HPM_P2
2021/06/25 00:02:24;;;;;;;4.60;4.20;;;;;;;19.04;77.55;100345.03;10364857;28;20055;-56
2021/06/25 00:07:26;;;;;;;4.53;4.13;;;;;;;18.99;77.41;100351.97;10366036;28;20048;-57
2021/06/25 00:12:27;;;;;;;7.07;4.95;;;;;;;19.00;77.91;100346.41;10362567;28;20053;-55
2021/06/25 00:17:29;;;;;;;7.03;4.85;;;;;;;19.04;77.33;100345.03;10369457;28;20636;-57
2021/06/25 00:22:31;;;;;;;4.10;3.75;;;;;;;18.86;78.21;100341.78;10372356;28;20053;-57
2021/06/25 00:27:33;;;;;;;8.23;4.65;;;;;;;18.78;78.79;100339.06;10353737;28;20038;-57
2021/06/25 00:32:35;;;;;;;4.15;3.75;;;;;;;18.89;78.82;100342.25;10354056;28;20088;-56
2021/06/25 00:37:37;;;;;;;5.22;4.25;;;;;;;18.88;77.90;100337.03;10357532;28;20050;-56
2021/06/25 00:42:39;;;;;;;4.88;4.43;;;;;;;18.93;78.21;100336.50;10352314;28;20060;-55
2021/06/25 00:47:46;;;;;;;5.00;4.07;;;;;;;18.87;77.68;100332.66;10350723;28;20388;-56
2021/06/25 00:52:57;;;;;;;4.53;4.10;;;;;;;18.73;78.62;100343.16;10365084;28;20121;-55
2021/06/25 00:57:59;;;;;;;4.28;3.67;;;;;;;18.50;76.95;100340.34;10354364;28;20491;-55
2021/06/25 01:03:01;;;;;;;4.40;4.00;;;;;;;18.53;79.39;100336.47;10359199;28;20042;-58
2021/06/25 01:08:04;;;;;;;4.85;3.90;;;;;;;18.71;78.47;100334.38;10368746;28;20053;-55
2021/06/25 01:13:07;;;;;;;6.38;4.18;;;;;;;18.73;78.20;100336.91;10354068;28;20549;-57
2021/06/25 01:18:09;;;;;;;6.40;4.00;;;;;;;18.64;78.79;100333.38;10348274;28;20045;-56
2021/06/25 01:23:11;;;;;;;5.28;3.65;;;;;;;18.77;77.70;100348.19;10362505;28;20289;-55
2021/06/25 01:28:13;;;;;;;4.40;3.85;;;;;;;18.72;78.28;100341.47;10348253;28;20049;-55
2021/06/25 01:33:17;;;;;;;4.18;3.78;;;;;;;18.84;76.99;100349.16;10364303;28;20053;-56
2021/06/25 01:38:18;;;;;;;4.65;3.65;;;;;;;18.45;77.28;100342.72;10355733;28;20045;-58
2021/06/25 01:43:24;;;;;;;3.85;3.55;;;;;;;18.51;77.34;100338.47;10363377;28;20049;-55
2021/06/25 01:48:26;;;;;;;5.22;3.83;;;;;;;18.50;79.12;100331.44;10367675;28;20059;-60
2021/06/25 01:53:27;;;;;;;5.07;4.55;;;;;;;18.51;79.02;100327.69;10373169;28;20045;-55
2021/06/25 01:58:31;;;;;;;4.03;3.72;;;;;;;18.49;79.95;100329.75;10371379;28;20052;-57
2021/06/25 02:03:32;;;;;;;5.53;4.25;;;;;;;18.25;80.04;100307.22;10356425;28;20429;-56
2021/06/25 02:08:34;;;;;;;4.47;4.07;;;;;;;18.53;79.33;100318.44;10344437;28;20041;-55
2021/06/25 02:13:36;;;;;;;5.38;4.45;;;;;;;18.54;79.67;100317.44;10347498;28;20053;-59
2021/06/25 02:18:38;;;;;;;6.28;4.18;;;;;;;18.54;78.34;100309.34;10351467;28;20407;-57
2021/06/25 02:23:40;;;;;;;4.35;3.95;;;;;;;18.60;78.02;100317.72;10356451;28;20046;-56
2021/06/25 02:28:42;;;;;;;4.03;3.33;;;;;;;18.69;77.63;100319.38;10358568;28;20608;-55
2021/06/25 02:33:43;;;;;;;4.28;3.88;;;;;;;18.69;77.34;100317.53;10361792;28;20049;-55
2021/06/25 02:38:45;;;;;;;4.30;3.72;;;;;;;18.71;78.04;100320.91;10352601;28;20058;-56
2021/06/25 02:43:48;;;;;;;5.97;4.10;;;;;;;18.75;78.34;100324.09;10352308;28;20049;-56
2021/06/25 02:48:49;;;;;;;5.03;4.03;;;;;;;18.61;78.67;100317.56;10352623;28;20053;-55
2021/06/25 02:53:51;;;;;;;5.93;4.45;;;;;;;18.49;80.78;100322.47;10370470;28;20057;-56
2021/06/25 02:58:52;;;;;;;4.47;4.07;;;;;;;18.38;81.51;100304.84;10362589;28;20048;-55
2021/06/25 03:03:54;;;;;;;5.57;3.75;;;;;;;18.40;81.38;100320.00;10364565;28;20069;-56
2021/06/25 03:08:55;;;;;;;6.97;5.00;;;;;;;18.46;81.19;100324.69;10368040;28;20042;-56
2021/06/25 03:13:57;;;;;;;4.88;4.47;;;;;;;18.02;82.09;100324.13;10369547;28;20045;-56
2021/06/25 03:18:59;;;;;;;5.72;4.78;;;;;;;18.16;84.70;100319.03;10361933;28;20046;-56
2021/06/25 03:24:00;;;;;;;6.20;4.85;;;;;;;18.19;83.60;100307.94;10359892;28;20041;-56
2021/06/25 03:29:02;;;;;;;6.38;5.18;;;;;;;18.23;84.29;100303.88;10358921;28;20058;-58
2021/06/25 03:34:04;;;;;;;4.53;4.10;;;;;;;18.22;83.60;100295.97;10355848;28;20054;-55
2021/06/25 03:39:06;;;;;;;5.35;4.82;;;;;;;18.28;83.81;100304.19;10350936;28;20069;-55
2021/06/25 03:44:07;;;;;;;4.75;4.20;;;;;;;18.37;82.79;100313.97;10365898;28;20046;-55
2021/06/25 03:49:11;;;;;;;4.80;3.90;;;;;;;18.36;82.65;100308.75;10351972;28;20058;-55
2021/06/25 03:54:13;;;;;;;4.07;3.67;;;;;;;18.34;81.84;100311.59;10364449;28;20057;-56
2021/06/25 03:59:14;;;;;;;3.53;3.22;;;;;;;18.35;81.28;100310.56;10350592;28;20430;-55
2021/06/25 04:04:16;;;;;;;4.00;3.60;;;;;;;18.31;81.64;100303.00;10349700;28;20042;-56
2021/06/25 04:09:17;;;;;;;3.42;3.13;;;;;;;18.31;80.98;100295.75;10349062;28;20053;-57
2021/06/25 04:14:19;;;;;;;4.30;3.92;;;;;;;18.45;80.77;100314.91;10347409;28;20053;-55
2021/06/25 04:19:21;;;;;;;5.10;4.57;;;;;;;18.45;80.81;100313.09;10354225;28;20128;-55
2021/06/25 04:24:23;;;;;;;5.35;4.85;;;;;;;18.55;81.81;100310.19;10346698;28;20045;-56
2021/06/25 04:29:24;;;;;;;4.97;4.22;;;;;;;18.42;81.58;100312.56;10358851;28;20045;-55
2021/06/25 04:34:26;;;;;;;5.18;4.68;;;;;;;18.15;83.05;100298.50;10346833;28;20068;-57
2021/06/25 04:39:27;;;;;;;5.55;4.60;;;;;;;18.24;84.37;100310.97;10351253;28;20415;-56
2021/06/25 04:44:29;;;;;;;4.72;4.20;;;;;;;18.37;82.65;100315.78;10345730;28;20054;-56
2021/06/25 04:49:32;;;;;;;4.60;4.20;;;;;;;18.35;82.35;100318.66;10348981;28;20419;-56
2021/06/25 04:54:34;;;;;;;5.32;4.55;;;;;;;18.43;82.59;100319.66;10350981;28;20050;-55
2021/06/25 04:59:36;;;;;;;5.03;4.63;;;;;;;18.54;82.06;100327.38;10351765;28;20073;-58
2021/06/25 05:04:37;;;;;;;5.80;4.90;;;;;;;18.32;81.53;100308.22;10308161;28;20277;-56
2021/06/25 05:09:39;;;;;;;5.78;5.15;;;;;;;18.23;83.67;100298.50;10311676;28;20050;-64
2021/06/25 05:14:41;;;;;;;5.30;4.80;;;;;;;18.54;82.99;100317.44;10311209;28;20045;-58
2021/06/25 05:19:42;;;;;;;5.65;5.10;;;;;;;18.50;82.51;100316.09;10307834;28;20731;-56
2021/06/25 05:24:44;;;;;;;6.75;5.28;;;;;;;18.65;82.47;100324.28;10309765;28;20057;-56
2021/06/25 05:29:45;;;;;;;6.53;5.85;;;;;;;18.78;81.16;100320.19;10302415;28;20057;-58
2021/06/25 05:34:48;;;;;;;5.90;5.32;;;;;;;18.63;80.90;100320.94;10306110;28;20053;-55
2021/06/25 05:39:50;;;;;;;6.78;6.18;;;;;;;18.76;82.14;100330.31;10301580;28;20061;-58
2021/06/25 05:44:52;;;;;;;6.75;6.15;;;;;;;18.90;81.78;100332.31;10299480;28;20502;-58
2021/06/25 05:49:53;;;;;;;7.53;6.90;;;;;;;18.97;79.31;100324.34;10304013;28;20522;-57
2021/06/25 05:54:55;;;;;;;8.25;7.45;;;;;;;19.19;78.70;100331.63;10303788;28;20097;-56
2021/06/25 05:59:56;;;;;;;8.70;7.55;;;;;;;19.02;76.71;100330.91;10299516;28;20046;-59
2021/06/25 06:04:58;;;;;;;8.68;7.90;;;;;;;18.78;78.35;100339.94;10300068;28;20464;-57
2021/06/25 06:10:00;;;;;;;9.38;8.48;;;;;;;18.77;79.67;100349.03;10305152;28;20396;-54
2021/06/25 06:15:02;;;;;;;10.77;9.80;;;;;;;19.08;79.09;100346.38;10295021;28;20180;-54
2021/06/25 06:20:06;;;;;;;12.48;10.38;;;;;;;19.28;77.27;100329.72;10309505;28;20066;-54
2021/06/25 06:35:51;;;;;;;13.15;11.93;;;;;;;19.85;73.40;100349.25;10305689;28;20597;-57
2021/06/25 06:40:52;;;;;;;13.80;12.52;;;;;;;19.75;72.77;100363.81;10301027;28;20054;-57
2021/06/25 06:45:54;;;;;;;12.82;11.50;;;;;;;19.85;72.95;100355.50;10301443;28;20058;-57
2021/06/25 06:50:55;;;;;;;13.63;12.40;;;;;;;19.98;71.88;100356.72;10300875;28;20038;-57
2021/06/25 06:55:57;;;;;;;13.05;11.88;;;;;;;19.84;72.06;100382.69;10309680;28;20046;-59
2021/06/25 07:00:59;;;;;;;15.85;14.27;;;;;;;19.57;73.33;100376.78;10306298;28;20050;-56
2021/06/25 07:06:02;;;;;;;14.85;13.35;;;;;;;19.99;73.21;100372.75;10306788;28;20838;-56
2021/06/25 07:11:04;;;;;;;14.67;13.37;;;;;;;20.06;72.68;100383.69;10308913;28;20056;-57
2021/06/25 07:16:06;;;;;;;15.80;14.20;;;;;;;20.14;72.16;100389.84;10310136;28;20053;-56
2021/06/25 07:21:08;;;;;;;16.15;14.70;;;;;;;20.46;70.20;100401.38;10304621;28;20628;-59
2021/06/25 07:26:10;;;;;;;16.70;14.60;;;;;;;20.55;69.77;100395.88;10306395;28;20045;-56
2021/06/25 07:31:11;;;;;;;15.85;14.38;;;;;;;20.59;68.80;100394.47;10306919;28;20054;-56
2021/06/25 07:36:14;;;;;;;16.73;15.13;;;;;;;20.68;67.69;100400.69;10307054;28;20057;-57
2021/06/25 07:41:15;;;;;;;16.45;14.70;;;;;;;20.82;67.19;100397.97;10307069;28;20057;-57
2021/06/25 07:46:17;;;;;;;17.02;13.48;;;;;;;21.14;66.58;100395.88;10302519;28;20054;-56
2021/06/25 07:51:18;;;;;;;16.92;15.38;;;;;;;21.40;64.67;100393.69;10304780;28;20053;-55
2021/06/25 07:56:21;;;;;;;16.42;14.77;;;;;;;21.43;63.87;100399.53;10299763;28;20684;-57
2021/06/25 08:01:23;;;;;;;16.58;15.05;;;;;;;21.39;64.78;100397.41;10302193;28;20046;-57
2021/06/25 08:06:27;;;;;;;16.13;14.57;;;;;;;21.46;65.71;100404.56;10302905;28;20403;-55
2021/06/25 08:11:28;;;;;;;16.60;14.52;;;;;;;21.77;63.66;100400.75;10298691;28;20530;-53
2021/06/25 08:16:30;;;;;;;16.88;15.07;;;;;;;20.97;64.30;100399.81;10301746;28;20071;-56
2021/06/25 08:21:32;;;;;;;14.30;12.77;;;;;;;20.52;66.95;100407.88;10303589;28;20115;-57
2021/06/25 08:26:33;;;;;;;15.57;14.18;;;;;;;20.26;67.56;100392.94;10299552;28;20046;-57
2021/06/25 08:31:35;;;;;;;16.23;14.65;;;;;;;20.32;67.00;100396.78;10303333;28;20049;-56
2021/06/25 08:36:41;;;;;;;15.40;13.70;;;;;;;20.38;65.73;100393.34;10303771;28;20173;-57
2021/06/25 08:41:43;;;;;;;16.73;15.05;;;;;;;20.89;63.91;100375.56;10313130;28;20042;-56
2021/06/25 08:46:47;;;;;;;16.48;14.65;;;;;;;21.64;61.91;100384.38;10305469;28;20050;-57
2021/06/25 08:51:49;;;;;;;14.43;13.02;;;;;;;22.28;60.57;100375.34;10295094;28;20390;-60
2021/06/25 08:56:51;;;;;;;13.43;12.13;;;;;;;22.47;59.45;100394.69;10307009;28;20160;-58
2021/06/25 09:01:52;;;;;;;12.30;11.02;;;;;;;22.72;57.76;100386.91;10304194;28;20046;-56
2021/06/25 09:06:54;;;;;;;12.80;11.50;;;;;;;22.51;58.03;100377.81;10304474;28;20081;-58
2021/06/25 09:12:11;;;;;;;13.95;12.57;;;;;;;22.37;58.99;100384.22;10308291;28;20065;-56
2021/06/25 09:17:12;;;;;;;14.07;12.77;;;;;;;22.54;58.64;100387.44;10310094;28;20045;-58
2021/06/25 09:22:21;;;;;;;15.65;14.05;;;;;;;22.35;58.56;100381.69;10303677;28;20042;-57
2021/06/25 09:27:23;;;;;;;15.25;13.88;;;;;;;23.11;56.21;100369.19;10312367;28;20065;-58
2021/06/25 09:32:37;;;;;;;15.55;14.00;;;;;;;23.70;54.34;100375.78;10307834;28;20058;-57
2021/06/25 09:37:44;;;;;;;13.70;12.50;;;;;;;24.21;53.16;100371.66;10297618;28;20042;-56
2021/06/25 09:43:06;;;;;;;15.77;14.27;;;;;;;23.57;51.65;100368.47;10310429;28;20064;-56
2021/06/25 09:48:07;;;;;;;15.13;13.00;;;;;;;23.47;53.64;100373.47;10307027;28;20054;-57
2021/06/25 09:53:09;;;;;;;16.70;15.20;;;;;;;23.27;53.56;100368.81;10312550;28;20073;-58
2021/06/25 10:03:22;;;;;;;16.33;14.63;;;;;;;23.74;54.53;100371.63;10311476;28;20061;-56
2021/06/25 10:08:23;;;;;;;16.00;14.45;;;;;;;24.10;52.13;100377.75;10305762;28;20041;-57
2021/06/25 10:13:25;;;;;;;15.63;14.05;;;;;;;24.81;51.02;100352.50;10308028;28;20050;-56
2021/06/25 10:18:33;;;;;;;17.48;15.77;;;;;;;23.78;51.84;100358.44;10306475;28;20053;-57
2021/06/25 10:23:37;;;;;;;16.17;14.60;;;;;;;23.14;53.96;100352.47;10325733;28;20069;-56
2021/06/25 10:28:41;;;;;;;17.88;16.08;;;;;;;22.79;55.18;100371.53;10310098;28;20050;-60
2021/06/25 10:33:44;;;;;;;19.77;17.90;;;;;;;22.99;54.06;100346.34;10308560;28;20057;-56
2021/06/25 10:38:46;;;;;;;18.17;16.30;;;;;;;23.32;54.75;100351.06;10305753;28;20089;-57
2021/06/25 10:43:54;;;;;;;19.27;17.27;;;;;;;22.93;54.47;100356.13;10311940;28;20050;-61
2021/06/25 10:48:57;;;;;;;17.38;15.63;;;;;;;22.75;54.27;100357.50;10308519;28;20055;-57
2021/06/25 10:54:09;;;;;;;16.55;13.35;;;;;;;23.29;53.90;100355.03;10315196;28;20053;-56
2021/06/25 10:59:28;;;;;;;16.08;14.45;;;;;;;24.64;50.13;100348.59;10312546;28;20054;-55
2021/06/25 11:04:33;;;;;;;16.17;14.63;;;;;;;24.96;49.22;100348.69;10312584;28;20050;-57
2021/06/25 11:09:57;;;;;;;13.18;11.88;;;;;;;25.22;48.27;100336.81;10301705;28;20430;-56
2021/06/25 11:15:05;;;;;;;15.50;14.00;;;;;;;25.15;47.59;100338.75;10307310;28;20045;-55
2021/06/25 11:20:47;;;;;;;12.18;10.93;;;;;;;25.65;45.96;100336.13;10309308;28;20051;-56
2021/06/25 11:25:52;;;;;;;15.32;13.80;;;;;;;25.88;43.64;100334.69;10306769;28;20046;-58
2021/06/25 11:30:55;;;;;;;15.23;13.73;;;;;;;25.83;43.39;100332.66;10314354;28;20042;-56
2021/06/25 11:36:21;;;;;;;13.63;12.23;;;;;;;26.53;41.84;100341.66;10314254;28;20066;-57
2021/06/25 11:41:34;;;;;;;13.82;12.52;;;;;;;26.52;44.14;100340.00;10311253;28;20058;-55
2021/06/25 11:46:50;;;;;;;15.95;14.48;;;;;;;26.44;43.46;100341.97;10303577;28;20111;-56
2021/06/25 11:51:51;;;;;;;12.55;11.35;;;;;;;26.26;42.42;100314.69;10300167;28;20049;-56
2021/06/25 11:56:53;;;;;;;15.32;13.90;;;;;;;27.42;39.83;100338.50;10305613;28;20062;-58
2021/06/25 12:01:59;;;;;;;14.77;13.37;;;;;;;27.60;40.31;100334.84;10307236;28;20058;-55
2021/06/25 12:07:02;;;;;;;15.50;14.10;;;;;;;27.73;40.40;100320.97;10299999;28;20046;-56
2021/06/25 12:12:04;;;;;;;16.85;15.35;;;;;;;27.40;40.30;100314.13;10305942;28;20077;-55
2021/06/25 12:17:05;;;;;;;17.92;16.33;;;;;;;26.29;42.05;100309.59;10306828;28;20436;-57
2021/06/25 12:22:09;;;;;;;15.57;14.17;;;;;;;25.90;44.01;100332.59;10311212;28;20062;-58
2021/06/25 12:27:10;;;;;;;12.75;11.65;;;;;;;26.28;40.99;100318.00;10305709;28;20064;-56
2021/06/25 12:32:20;;;;;;;8.73;7.95;;;;;;;27.04;40.85;100304.09;10303231;28;20057;-55
2021/06/25 12:37:22;;;;;;;10.75;9.52;;;;;;;26.86;39.47;100313.16;10304401;28;20646;-57
2021/06/25 12:42:23;;;;;;;12.80;11.67;;;;;;;26.23;41.60;100323.31;10304472;28;20061;-57
2021/06/25 12:47:29;;;;;;;12.57;10.57;;;;;;;26.46;40.95;100315.28;10307602;28;20069;-56
2021/06/25 12:52:33;;;;;;;13.15;11.90;;;;;;;26.83;41.54;100313.63;10304858;28;20054;-55
2021/06/25 12:57:35;;;;;;;13.13;10.15;;;;;;;27.36;40.81;100307.47;10307982;28;20053;-55
2021/06/25 13:02:36;;;;;;;11.97;10.77;;;;;;;27.11;39.30;100316.63;10302695;28;20062;-56
2021/06/25 13:07:38;;;;;;;12.17;10.87;;;;;;;26.77;40.20;100316.22;10304865;28;20518;-56
2021/06/25 13:12:39;;;;;;;12.10;11.00;;;;;;;25.85;41.62;100307.88;10307358;28;20054;-56
2021/06/25 13:17:41;;;;;;;11.25;10.10;;;;;;;25.63;42.93;100302.84;10306286;28;20193;-58
2021/06/25 13:22:56;;;;;;;11.73;10.53;;;;;;;25.26;42.87;100299.91;10303012;28;20076;-55
2021/06/25 13:27:58;;;;;;;11.80;10.77;;;;;;;24.86;43.88;100302.84;10307885;28;20047;-49
2021/06/25 13:33:02;;;;;;;12.52;11.38;;;;;;;24.55;44.04;100298.97;10309280;28;20057;-49
2021/06/25 13:38:27;;;;;;;11.35;10.40;;;;;;;25.10;44.40;100300.44;10314923;28;20670;-51
2021/06/25 13:43:29;;;;;;;12.27;11.18;;;;;;;25.06;43.88;100306.31;10310433;28;20154;-51
2021/06/25 13:48:31;;;;;;;11.20;10.20;;;;;;;24.66;45.53;100306.50;10315996;28;20419;-50
2021/06/25 13:53:37;;;;;;;13.30;11.95;;;;;;;24.48;45.53;100309.03;10311891;28;20053;-51
2021/06/25 13:59:01;;;;;;;10.40;9.50;;;;;;;24.67;45.68;100313.63;10310125;28;20038;-50
2021/06/25 14:04:08;;;;;;;11.52;10.43;;;;;;;24.50;45.24;100321.38;10312174;28;20050;-63
2021/06/25 14:09:25;;;;;;;10.10;9.23;;;;;;;24.41;44.80;100319.97;10311676;28;20053;-63
2021/06/25 14:14:40;;;;;;;11.77;10.48;;;;;;;24.48;44.91;100309.03;10301028;28;20050;-63
2021/06/25 14:19:42;;;;;;;12.82;11.63;;;;;;;24.86;44.31;100311.00;10315714;28;20046;-62
2021/06/25 14:24:43;;;;;;;11.82;10.73;;;;;;;24.91;44.59;100315.84;10309064;28;20109;-62
2021/06/25 14:29:45;;;;;;;14.02;12.23;;;;;;;24.52;45.19;100288.53;10310874;28;20432;-63
2021/06/25 14:34:47;;;;;;;10.68;9.68;;;;;;;24.65;45.70;100304.84;10306334;28;20054;-63
2021/06/25 14:39:49;;;;;;;12.95;10.73;;;;;;;24.64;45.52;100319.50;10310215;28;20057;-61
2021/06/25 14:44:51;;;;;;;11.88;10.77;;;;;;;24.81;46.04;100319.00;10307844;28;20057;-62
2021/06/25 14:49:52;;;;;;;12.48;11.23;;;;;;;24.75;46.11;100314.44;10303537;28;20068;-62
2021/06/25 14:54:54;;;;;;;12.15;11.07;;;;;;;24.90;46.03;100317.69;10310561;28;20046;-62
2021/06/25 14:59:55;;;;;;;12.73;11.52;;;;;;;24.64;45.97;100308.59;10309586;28;20248;-63
2021/06/25 15:04:57;;;;;;;12.77;11.48;;;;;;;24.64;45.86;100316.75;10302623;28;20125;-64
2021/06/25 15:10:03;;;;;;;9.85;8.95;;;;;;;24.89;46.09;100305.13;10307746;28;20047;-63
2021/06/25 15:15:06;;;;;;;11.85;10.75;;;;;;;24.82;44.83;100304.34;10304384;28;20076;-56
2021/06/25 15:20:08;;;;;;;10.02;9.10;;;;;;;24.76;45.54;100300.59;10309702;28;20053;-54
2021/06/25 15:25:11;;;;;;;9.33;8.53;;;;;;;24.87;45.17;100299.09;10309096;28;20719;-55
2021/06/25 15:30:14;;;;;;;8.90;8.02;;;;;;;24.92;44.45;100293.84;10303419;28;20050;-57
2021/06/25 15:35:16;;;;;;;8.70;7.90;;;;;;;24.82;44.94;100299.72;10298635;28;20054;-58
2021/06/25 15:40:17;;;;;;;10.00;8.57;;;;;;;24.76;45.11;100294.34;10283144;28;20057;-58
2021/06/25 15:45:22;;;;;;;10.82;8.57;;;;;;;24.79;44.92;100283.84;10298707;28;20051;-59
2021/06/25 15:50:23;;;;;;;9.90;9.00;;;;;;;24.82;44.57;100293.47;10303824;28;20045;-57
2021/06/25 15:55:25;;;;;;;9.68;8.88;;;;;;;24.65;44.09;100293.97;10299383;28;20061;-57
2021/06/25 16:00:27;;;;;;;9.17;8.37;;;;;;;24.56;44.78;100291.63;10298425;28;20070;-55
2021/06/25 16:05:30;;;;;;;9.33;8.53;;;;;;;24.52;45.32;100280.38;10284055;28;20519;-58
2021/06/25 16:10:37;;;;;;;7.60;6.90;;;;;;;24.42;45.25;100271.81;10295196;28;20049;-55
2021/06/25 16:15:41;;;;;;;8.70;7.40;;;;;;;24.20;46.31;100280.25;10300137;28;20054;-57
2021/06/25 16:20:43;;;;;;;8.73;7.85;;;;;;;24.07;46.41;100280.28;10298379;28;20068;-56
2021/06/25 16:25:44;;;;;;;9.38;8.48;;;;;;;23.89;46.74;100273.59;10292821;28;20880;-57
2021/06/25 16:30:46;;;;;;;9.43;8.52;;;;;;;23.63;47.55;100269.81;10301255;28;20625;-57
2021/06/25 16:35:48;;;;;;;7.78;7.10;;;;;;;23.72;47.90;100267.75;10297117;28;20058;-56
2021/06/25 16:40:49;;;;;;;7.60;6.63;;;;;;;23.62;48.04;100267.31;10297426;28;20054;-57
2021/06/25 16:45:51;;;;;;;8.18;7.47;;;;;;;23.58;47.53;100261.44;10298250;28;20063;-58
2021/06/25 16:50:53;;;;;;;6.75;6.18;;;;;;;23.59;47.97;100270.47;10297246;28;20050;-58
2021/06/25 16:55:56;;;;;;;7.57;6.97;;;;;;;23.50;48.17;100272.53;10301416;28;20047;-56
2021/06/25 17:00:57;;;;;;;7.43;6.73;;;;;;;23.19;48.34;100276.66;10308292;28;20422;-57
2021/06/25 17:06:00;;;;;;;7.00;6.43;;;;;;;23.05;48.04;100255.94;10312008;28;20054;-57
2021/06/25 17:11:02;;;;;;;6.18;5.60;;;;;;;22.99;48.01;100251.34;10304320;28;20534;-55
2021/06/25 17:16:05;;;;;;;7.18;6.18;;;;;;;23.17;47.35;100264.34;10305924;28;20420;-57
2021/06/25 17:21:07;;;;;;;8.45;6.50;;;;;;;23.19;47.92;100281.28;10305034;28;20507;-57
2021/06/25 17:26:09;;;;;;;6.97;5.97;;;;;;;23.11;48.06;100282.31;10326082;28;20411;-57
2021/06/25 17:31:10;;;;;;;6.57;5.97;;;;;;;22.98;48.12;100284.94;10304707;28;20046;-61
2021/06/25 17:36:12;;;;;;;5.85;5.35;;;;;;;22.92;47.70;100281.16;10304682;28;20511;-57
2021/06/25 17:41:14;;;;;;;6.65;6.03;;;;;;;22.94;47.51;100281.81;10306476;28;20057;-57
2021/06/25 17:46:15;;;;;;;5.75;5.25;;;;;;;22.88;47.89;100278.03;10304562;28;20046;-58
2021/06/25 17:51:18;;;;;;;6.90;6.20;;;;;;;22.83;47.77;100285.94;10305197;28;20133;-58
2021/06/25 17:56:19;;;;;;;5.43;4.90;;;;;;;22.68;47.70;100282.53;10304783;28;20703;-57
2021/06/25 18:01:21;;;;;;;5.07;4.55;;;;;;;22.60;48.68;100281.66;10301721;28;20049;-57
2021/06/25 18:06:22;;;;;;;6.28;5.78;;;;;;;22.42;48.42;100282.22;10303652;28;20768;-56
2021/06/25 18:11:24;;;;;;;5.63;5.13;;;;;;;22.41;48.71;100285.13;10306268;28;20046;-55
2021/06/25 18:16:25;;;;;;;5.90;5.30;;;;;;;22.32;48.94;100292.59;10306141;28;20054;-56
2021/06/25 18:21:27;;;;;;;6.63;5.70;;;;;;;22.17;48.55;100292.69;10304024;28;20063;-57
2021/06/25 18:26:29;;;;;;;5.93;4.43;;;;;;;22.12;48.79;100289.72;10302040;28;20077;-56
2021/06/25 18:31:30;;;;;;;5.80;4.22;;;;;;;22.02;48.76;100289.25;10303016;28;20419;-57
2021/06/25 18:36:32;;;;;;;5.75;5.25;;;;;;;21.98;48.70;100293.38;10306871;28;22105;-58
2021/06/25 18:41:34;;;;;;;8.43;5.45;;;;;;;21.97;48.72;100297.13;10301770;28;20050;-55
2021/06/25 18:46:36;;;;;;;5.60;5.10;;;;;;;21.97;48.60;100305.25;10301194;28;20077;-57
2021/06/25 18:51:38;;;;;;;5.32;4.93;;;;;;;21.88;48.81;100315.41;10303245;28;20185;-56
2021/06/25 18:56:41;;;;;;;4.82;4.40;;;;;;;21.80;49.55;100316.38;10309670;28;20062;-57
2021/06/25 19:01:43;;;;;;;;;;;;;;;21.79;48.69;100311.16;10299666;28;20065;-56
2021/06/25 19:06:44;;;;;;;4.75;4.35;;;;;;;21.77;49.44;100311.38;10302413;28;19922;-58
2021/06/25 19:11:47;;;;;;;6.25;5.72;;;;;;;21.69;51.11;100319.63;10304052;28;20046;-56
2021/06/25 19:16:48;;;;;;;6.82;6.10;;;;;;;21.58;51.41;100331.00;10298847;28;20061;-55
2021/06/25 19:21:53;;;;;;;7.07;6.47;;;;;;;21.46;52.33;100328.75;10299476;28;20046;-55
2021/06/25 19:26:54;;;;;;;7.65;6.95;;;;;;;21.41;52.55;100347.47;10305351;28;20054;-56
2021/06/25 19:31:56;;;;;;;7.10;6.50;;;;;;;21.33;53.12;100348.41;10305133;28;20069;-55
2021/06/25 19:36:57;;;;;;;6.68;6.10;;;;;;;21.19;53.62;100342.00;10301766;28;20411;-57
2021/06/25 19:42:01;;;;;;;7.13;6.50;;;;;;;21.08;53.91;100331.69;10303596;28;20123;-58
2021/06/25 19:47:04;;;;;;;7.43;6.72;;;;;;;21.11;54.46;100361.06;10299606;28;20097;-59
2021/06/25 19:52:06;;;;;;;7.22;6.68;;;;;;;21.02;54.60;100360.34;10299059;28;20057;-56
2021/06/25 19:57:08;;;;;;;7.32;6.72;;;;;;;20.97;55.21;100357.38;10304038;28;20046;-58
2021/06/25 20:02:10;;;;;;;8.30;7.40;;;;;;;20.99;55.43;100365.31;10302318;28;20053;-57
2021/06/25 20:07:11;;;;;;;7.68;7.07;;;;;;;20.98;56.40;100379.84;10308112;28;20052;-58
2021/06/25 20:12:14;;;;;;;8.40;7.72;;;;;;;20.94;56.83;100368.56;10299554;28;20057;-56
2021/06/25 20:17:15;;;;;;;10.40;8.73;;;;;;;20.87;57.31;100373.06;10301582;28;20054;-57
2021/06/25 20:22:17;;;;;;;8.60;7.95;;;;;;;20.83;57.86;100378.00;10300185;28;20053;-56
2021/06/25 20:27:20;;;;;;;8.88;8.07;;;;;;;20.72;57.83;100358.72;10297798;28;20541;-57
2021/06/25 20:32:22;;;;;;;10.60;9.30;;;;;;;20.73;58.00;100382.00;10303353;28;20058;-54
2021/06/25 20:37:23;;;;;;;17.40;8.98;;;;;;;20.66;58.34;100381.94;10303168;28;20072;-59
2021/06/25 20:42:25;;;;;;;8.68;7.97;;;;;;;20.56;58.77;100370.53;10304764;28;20047;-56
2021/06/25 20:47:27;;;;;;;10.35;9.45;;;;;;;20.54;59.09;100383.41;10314507;28;20057;-56
2021/06/25 20:52:28;;;;;;;9.77;8.93;;;;;;;20.40;59.36;100385.91;10308347;28;20054;-56
2021/06/25 20:57:30;;;;;;;9.25;8.45;;;;;;;20.34;59.65;100383.91;10337600;28;20559;-56
2021/06/25 21:02:31;;;;;;;10.80;9.57;;;;;;;20.27;59.66;100386.53;10346042;28;20057;-55
2021/06/25 21:07:33;;;;;;;9.88;9.07;;;;;;;20.14;60.23;100384.44;10352454;28;20045;-55
2021/06/25 21:12:36;;;;;;;8.77;8.05;;;;;;;20.20;59.96;100388.28;10349600;28;20045;-55
2021/06/25 21:17:37;;;;;;;10.03;9.13;;;;;;;20.16;60.25;100399.63;10354556;28;20133;-56
2021/06/25 21:22:39;;;;;;;10.13;9.13;;;;;;;20.07;60.17;100394.31;10346405;28;20078;-59
2021/06/25 21:27:41;;;;;;;10.07;9.07;;;;;;;20.01;60.50;100397.75;10350624;28;20057;-56
2021/06/25 21:32:43;;;;;;;10.77;9.70;;;;;;;20.02;60.76;100395.88;10350240;28;20110;-57
2021/06/25 21:37:45;;;;;;;11.32;10.23;;;;;;;20.01;60.86;100397.75;10356062;28;20391;-58
2021/06/25 21:42:46;;;;;;;9.95;9.13;;;;;;;19.96;61.56;100402.84;10356257;28;20050;-55
2021/06/25 21:47:48;;;;;;;10.70;9.57;;;;;;;19.83;62.11;100386.41;10342581;28;20061;-56
2021/06/25 21:52:50;;;;;;;10.23;9.32;;;;;;;19.90;62.06;100403.56;10362644;28;20050;-55
2021/06/25 21:57:51;;;;;;;10.68;9.75;;;;;;;19.82;62.26;100407.19;10356427;28;20053;-56
2021/06/25 22:02:53;;;;;;;10.35;9.35;;;;;;;19.69;62.61;100409.59;10357620;28;20046;-56
2021/06/25 22:07:55;;;;;;;9.80;8.90;;;;;;;19.67;62.36;100407.09;10359084;28;20092;-54
2021/06/25 22:12:56;;;;;;;10.85;9.85;;;;;;;19.62;62.47;100409.47;10361486;28;20076;-56
2021/06/25 22:17:58;;;;;;;10.65;9.70;;;;;;;19.63;62.60;100403.06;10359431;28;20045;-57
2021/06/25 22:23:00;;;;;;;9.95;8.90;;;;;;;19.65;62.39;100406.44;10363901;28;20083;-57
2021/06/25 22:28:02;;;;;;;9.93;8.90;;;;;;;19.66;62.46;100416.19;10363053;28;20058;-56
2021/06/25 22:33:04;;;;;;;10.93;9.93;;;;;;;19.52;62.78;100400.78;10363273;28;20060;-55
2021/06/25 22:38:06;;;;;;;11.32;10.05;;;;;;;19.51;63.15;100423.38;10368656;28;20049;-57
2021/06/25 22:43:07;;;;;;;10.50;9.60;;;;;;;19.44;63.40;100415.13;10368105;28;20049;-56
2021/06/25 22:48:09;;;;;;;11.10;10.02;;;;;;;19.41;63.10;100419.06;10366133;28;20042;-56
2021/06/25 22:53:10;;;;;;;11.02;9.93;;;;;;;19.28;64.59;100424.19;10353343;28;20037;-58
2021/06/25 22:58:12;;;;;;;10.43;9.52;;;;;;;19.34;64.80;100428.88;10361100;28;20057;-56
2021/06/25 23:03:14;;;;;;;11.43;10.30;;;;;;;19.28;64.97;100417.97;10357969;28;20518;-55
2021/06/25 23:08:18;;;;;;;12.68;11.23;;;;;;;19.26;64.93;100418.13;10355976;28;20056;-57
2021/06/25 23:13:20;;;;;;;11.88;10.77;;;;;;;19.28;65.17;100421.50;10359035;28;22588;-55